sensor_id;sensor_type;location;lat;lon;timestamp;temperature;humidity
39315;DHT22;28703;44.412;11.918;2023-07-13T00:01:48;29.80;93.80
39315;DHT22;28703;44.412;11.918;2023-07-13T00:04:22;29.80;93.60
39315;DHT22;28703;44.412;11.918;2023-07-13T00:06:51;29.80;93.50
39315;DHT22;28703;44.412;11.918;2023-07-13T00:09:17;29.80;92.90
39315;DHT22;28703;44.412;11.918;2023-07-13T00:11:44;29.70;91.90
39315;DHT22;28703;44.412;11.918;2023-07-13T00:14:10;29.60;91.00
39315;DHT22;28703;44.412;11.918;2023-07-13T00:16:38;29.50;89.60
39315;DHT22;28703;44.412;11.918;2023-07-13T00:21:39;29.30;85.50
39315;DHT22;28703;44.412;11.918;2023-07-13T00:24:10;29.20;84.00
39315;DHT22;28703;44.412;11.918;2023-07-13T00:26:41;29.20;83.60
39315;DHT22;28703;44.412;11.918;2023-07-13T00:29:10;29.20;83.40
39315;DHT22;28703;44.412;11.918;2023-07-13T00:31:36;29.20;82.80
39315;DHT22;28703;44.412;11.918;2023-07-13T00:34:04;29.20;82.90
39315;DHT22;28703;44.412;11.918;2023-07-13T00:36:30;29.20;82.80
39315;DHT22;28703;44.412;11.918;2023-07-13T00:38:59;29.20;82.40
39315;DHT22;28703;44.412;11.918;2023-07-13T00:41:25;29.20;82.80
39315;DHT22;28703;44.412;11.918;2023-07-13T00:43:51;29.20;82.50
39315;DHT22;28703;44.412;11.918;2023-07-13T00:46:21;29.20;81.90
39315;DHT22;28703;44.412;11.918;2023-07-13T00:48:48;29.20;82.10
39315;DHT22;28703;44.412;11.918;2023-07-13T00:51:19;29.20;82.30
39315;DHT22;28703;44.412;11.918;2023-07-13T00:53:46;29.20;82.40
39315;DHT22;28703;44.412;11.918;2023-07-13T00:56:13;29.20;82.50
39315;DHT22;28703;44.412;11.918;2023-07-13T00:58:39;29.30;82.80
39315;DHT22;28703;44.412;11.918;2023-07-13T01:01:05;29.30;82.70
39315;DHT22;28703;44.412;11.918;2023-07-13T01:03:31;29.30;82.70
39315;DHT22;28703;44.412;11.918;2023-07-13T01:05:58;29.30;82.90
39315;DHT22;28703;44.412;11.918;2023-07-13T01:08:25;29.40;82.90
39315;DHT22;28703;44.412;11.918;2023-07-13T01:10:53;29.40;83.00
39315;DHT22;28703;44.412;11.918;2023-07-13T01:13:19;29.40;83.10
39315;DHT22;28703;44.412;11.918;2023-07-13T01:15:47;29.40;83.10
39315;DHT22;28703;44.412;11.918;2023-07-13T01:18:25;29.40;83.10
39315;DHT22;28703;44.412;11.918;2023-07-13T01:20:58;29.40;83.20
39315;DHT22;28703;44.412;11.918;2023-07-13T01:23:26;29.40;83.30
39315;DHT22;28703;44.412;11.918;2023-07-13T01:25:52;29.40;83.40
39315;DHT22;28703;44.412;11.918;2023-07-13T01:28:19;29.50;83.60
39315;DHT22;28703;44.412;11.918;2023-07-13T01:30:46;29.50;83.80
39315;DHT22;28703;44.412;11.918;2023-07-13T01:33:14;29.50;83.70
39315;DHT22;28703;44.412;11.918;2023-07-13T01:35:41;29.50;83.70
39315;DHT22;28703;44.412;11.918;2023-07-13T01:38:07;29.50;83.70
39315;DHT22;28703;44.412;11.918;2023-07-13T01:40:34;29.50;83.70
39315;DHT22;28703;44.412;11.918;2023-07-13T01:43:00;29.50;83.70
39315;DHT22;28703;44.412;11.918;2023-07-13T01:45:26;29.40;83.80
39315;DHT22;28703;44.412;11.918;2023-07-13T01:47:52;29.40;83.90
39315;DHT22;28703;44.412;11.918;2023-07-13T01:50:18;29.40;84.00
39315;DHT22;28703;44.412;11.918;2023-07-13T01:52:46;29.40;84.10
39315;DHT22;28703;44.412;11.918;2023-07-13T01:55:13;29.40;84.10
39315;DHT22;28703;44.412;11.918;2023-07-13T01:57:40;29.30;84.10
39315;DHT22;28703;44.412;11.918;2023-07-13T02:00:08;29.20;84.20
39315;DHT22;28703;44.412;11.918;2023-07-13T02:02:46;29.20;84.30
39315;DHT22;28703;44.412;11.918;2023-07-13T02:05:13;29.20;84.40
39315;DHT22;28703;44.412;11.918;2023-07-13T02:07:41;29.20;84.50
39315;DHT22;28703;44.412;11.918;2023-07-13T02:10:08;29.20;84.60
39315;DHT22;28703;44.412;11.918;2023-07-13T02:12:34;29.10;84.60
39315;DHT22;28703;44.412;11.918;2023-07-13T02:15:01;29.10;84.90
39315;DHT22;28703;44.412;11.918;2023-07-13T02:17:27;29.10;85.40
39315;DHT22;28703;44.412;11.918;2023-07-13T02:19:53;29.00;90.80
39315;DHT22;28703;44.412;11.918;2023-07-13T02:22:20;28.90;93.00
39315;DHT22;28703;44.412;11.918;2023-07-13T02:24:46;28.80;94.30
39315;DHT22;28703;44.412;11.918;2023-07-13T02:27:12;28.70;94.60
39315;DHT22;28703;44.412;11.918;2023-07-13T02:29:38;28.70;95.30
39315;DHT22;28703;44.412;11.918;2023-07-13T02:32:04;28.60;96.20
39315;DHT22;28703;44.412;11.918;2023-07-13T02:34:30;28.60;96.20
39315;DHT22;28703;44.412;11.918;2023-07-13T02:36:56;28.60;96.70
39315;DHT22;28703;44.412;11.918;2023-07-13T02:39:21;28.50;96.90
39315;DHT22;28703;44.412;11.918;2023-07-13T02:41:47;28.50;97.20
39315;DHT22;28703;44.412;11.918;2023-07-13T02:44:14;28.50;98.10
39315;DHT22;28703;44.412;11.918;2023-07-13T02:46:40;28.50;97.60
39315;DHT22;28703;44.412;11.918;2023-07-13T02:49:06;28.40;97.60
39315;DHT22;28703;44.412;11.918;2023-07-13T02:51:33;28.50;97.60
39315;DHT22;28703;44.412;11.918;2023-07-13T02:54:01;28.40;97.70
39315;DHT22;28703;44.412;11.918;2023-07-13T02:56:31;28.50;97.70
39315;DHT22;28703;44.412;11.918;2023-07-13T02:58:57;28.50;98.00
39315;DHT22;28703;44.412;11.918;2023-07-13T03:01:23;28.40;98.10
39315;DHT22;28703;44.412;11.918;2023-07-13T03:03:51;28.40;98.10
39315;DHT22;28703;44.412;11.918;2023-07-13T03:06:19;28.40;98.00
39315;DHT22;28703;44.412;11.918;2023-07-13T03:08:49;28.40;98.30
39315;DHT22;28703;44.412;11.918;2023-07-13T03:11:18;28.40;98.10
39315;DHT22;28703;44.412;11.918;2023-07-13T03:13:49;28.40;98.20
39315;DHT22;28703;44.412;11.918;2023-07-13T03:16:16;28.40;98.20
39315;DHT22;28703;44.412;11.918;2023-07-13T03:18:45;28.40;98.30
39315;DHT22;28703;44.412;11.918;2023-07-13T03:21:12;28.40;98.20
39315;DHT22;28703;44.412;11.918;2023-07-13T03:23:39;28.40;98.30
39315;DHT22;28703;44.412;11.918;2023-07-13T03:26:10;28.40;98.20
39315;DHT22;28703;44.412;11.918;2023-07-13T03:28:39;28.40;98.20
39315;DHT22;28703;44.412;11.918;2023-07-13T03:31:13;28.40;98.20
39315;DHT22;28703;44.412;11.918;2023-07-13T03:33:40;28.40;98.20
39315;DHT22;28703;44.412;11.918;2023-07-13T03:36:09;28.40;98.20
39315;DHT22;28703;44.412;11.918;2023-07-13T03:38:35;28.40;98.20
39315;DHT22;28703;44.412;11.918;2023-07-13T03:41:03;28.40;98.20
39315;DHT22;28703;44.412;11.918;2023-07-13T03:43:29;28.40;98.20
39315;DHT22;28703;44.412;11.918;2023-07-13T03:45:55;28.40;98.20
39315;DHT22;28703;44.412;11.918;2023-07-13T03:48:21;28.40;98.20
39315;DHT22;28703;44.412;11.918;2023-07-13T03:50:48;28.40;98.50
39315;DHT22;28703;44.412;11.918;2023-07-13T03:53:15;28.40;98.20
39315;DHT22;28703;44.412;11.918;2023-07-13T03:55:41;28.40;98.20
39315;DHT22;28703;44.412;11.918;2023-07-13T03:58:34;28.40;98.20
39315;DHT22;28703;44.412;11.918;2023-07-13T04:01:17;28.40;98.20
39315;DHT22;28703;44.412;11.918;2023-07-13T04:03:44;28.40;98.30
39315;DHT22;28703;44.412;11.918;2023-07-13T04:06:20;28.40;98.30
39315;DHT22;28703;44.412;11.918;2023-07-13T04:08:49;28.30;98.30
39315;DHT22;28703;44.412;11.918;2023-07-13T04:11:16;28.30;98.30
39315;DHT22;28703;44.412;11.918;2023-07-13T04:13:42;28.40;98.30
39315;DHT22;28703;44.412;11.918;2023-07-13T04:16:09;28.40;98.30
39315;DHT22;28703;44.412;11.918;2023-07-13T04:18:35;28.30;98.30
39315;DHT22;28703;44.412;11.918;2023-07-13T04:21:01;28.40;98.30
39315;DHT22;28703;44.412;11.918;2023-07-13T04:23:27;28.40;98.30
39315;DHT22;28703;44.412;11.918;2023-07-13T04:25:53;28.40;98.30
39315;DHT22;28703;44.412;11.918;2023-07-13T04:28:23;28.40;98.40
39315;DHT22;28703;44.412;11.918;2023-07-13T04:30:51;28.40;98.40
39315;DHT22;28703;44.412;11.918;2023-07-13T04:33:17;28.40;98.30
39315;DHT22;28703;44.412;11.918;2023-07-13T04:35:52;28.40;98.40
39315;DHT22;28703;44.412;11.918;2023-07-13T04:38:26;28.30;98.30
39315;DHT22;28703;44.412;11.918;2023-07-13T04:40:55;28.40;98.40
39315;DHT22;28703;44.412;11.918;2023-07-13T04:43:22;28.30;98.40
39315;DHT22;28703;44.412;11.918;2023-07-13T04:45:48;28.30;98.30
39315;DHT22;28703;44.412;11.918;2023-07-13T04:48:13;28.40;98.30
39315;DHT22;28703;44.412;11.918;2023-07-13T04:50:40;28.30;98.40
39315;DHT22;28703;44.412;11.918;2023-07-13T04:53:06;28.30;98.50
39315;DHT22;28703;44.412;11.918;2023-07-13T04:55:32;28.20;98.50
39315;DHT22;28703;44.412;11.918;2023-07-13T04:57:58;28.20;98.50
39315;DHT22;28703;44.412;11.918;2023-07-13T05:00:27;28.30;98.50
39315;DHT22;28703;44.412;11.918;2023-07-13T05:02:55;28.20;98.50
39315;DHT22;28703;44.412;11.918;2023-07-13T05:05:21;28.20;98.80
39315;DHT22;28703;44.412;11.918;2023-07-13T05:07:47;28.20;98.60
39315;DHT22;28703;44.412;11.918;2023-07-13T05:10:12;28.20;98.60
39315;DHT22;28703;44.412;11.918;2023-07-13T05:12:38;28.20;98.60
39315;DHT22;28703;44.412;11.918;2023-07-13T05:15:05;28.20;98.60
39315;DHT22;28703;44.412;11.918;2023-07-13T05:17:31;28.20;98.60
39315;DHT22;28703;44.412;11.918;2023-07-13T05:19:56;28.30;98.60
39315;DHT22;28703;44.412;11.918;2023-07-13T05:22:22;28.20;98.50
39315;DHT22;28703;44.412;11.918;2023-07-13T05:24:48;28.30;98.50
39315;DHT22;28703;44.412;11.918;2023-07-13T05:27:14;28.30;98.40
39315;DHT22;28703;44.412;11.918;2023-07-13T05:29:41;28.30;98.40
39315;DHT22;28703;44.412;11.918;2023-07-13T05:32:07;28.20;98.30
39315;DHT22;28703;44.412;11.918;2023-07-13T05:34:33;28.20;98.30
39315;DHT22;28703;44.412;11.918;2023-07-13T05:36:59;28.20;98.40
39315;DHT22;28703;44.412;11.918;2023-07-13T05:39:25;28.20;98.40
39315;DHT22;28703;44.412;11.918;2023-07-13T05:41:53;28.20;98.40
39315;DHT22;28703;44.412;11.918;2023-07-13T05:44:19;28.20;98.40
39315;DHT22;28703;44.412;11.918;2023-07-13T05:46:45;28.20;98.30
39315;DHT22;28703;44.412;11.918;2023-07-13T05:49:11;28.20;98.30
39315;DHT22;28703;44.412;11.918;2023-07-13T05:51:37;28.30;98.30
39315;DHT22;28703;44.412;11.918;2023-07-13T05:54:04;28.30;98.20
39315;DHT22;28703;44.412;11.918;2023-07-13T05:56:29;28.30;98.20
39315;DHT22;28703;44.412;11.918;2023-07-13T05:58:56;28.30;98.20
39315;DHT22;28703;44.412;11.918;2023-07-13T06:01:22;28.40;98.10
39315;DHT22;28703;44.412;11.918;2023-07-13T06:03:49;28.40;98.10
39315;DHT22;28703;44.412;11.918;2023-07-13T06:06:15;28.40;98.10
39315;DHT22;28703;44.412;11.918;2023-07-13T06:08:42;28.50;98.10
39315;DHT22;28703;44.412;11.918;2023-07-13T06:13:39;28.50;97.90
39315;DHT22;28703;44.412;11.918;2023-07-13T06:16:05;28.40;97.80
39315;DHT22;28703;44.412;11.918;2023-07-13T06:18:34;28.50;97.90
39315;DHT22;28703;44.412;11.918;2023-07-13T06:21:00;28.60;97.90
39315;DHT22;28703;44.412;11.918;2023-07-13T06:23:26;28.60;97.70
39315;DHT22;28703;44.412;11.918;2023-07-13T06:25:52;28.50;97.50
39315;DHT22;28703;44.412;11.918;2023-07-13T06:28:18;28.60;97.40
39315;DHT22;28703;44.412;11.918;2023-07-13T06:30:45;28.60;97.30
39315;DHT22;28703;44.412;11.918;2023-07-13T06:33:10;28.60;97.10
39315;DHT22;28703;44.412;11.918;2023-07-13T06:35:36;28.60;97.10
39315;DHT22;28703;44.412;11.918;2023-07-13T06:38:02;28.70;97.10
39315;DHT22;28703;44.412;11.918;2023-07-13T06:40:28;28.70;97.20
39315;DHT22;28703;44.412;11.918;2023-07-13T06:42:57;28.80;97.10
39315;DHT22;28703;44.412;11.918;2023-07-13T06:45:23;28.80;97.00
39315;DHT22;28703;44.412;11.918;2023-07-13T06:47:49;28.90;97.00
39315;DHT22;28703;44.412;11.918;2023-07-13T06:50:15;28.90;96.90
39315;DHT22;28703;44.412;11.918;2023-07-13T06:52:41;29.00;96.90
39315;DHT22;28703;44.412;11.918;2023-07-13T06:55:07;29.00;96.80
39315;DHT22;28703;44.412;11.918;2023-07-13T06:57:33;29.00;96.80
39315;DHT22;28703;44.412;11.918;2023-07-13T07:00:18;29.10;96.80
39315;DHT22;28703;44.412;11.918;2023-07-13T07:02:44;29.10;96.70
39315;DHT22;28703;44.412;11.918;2023-07-13T07:05:10;29.10;96.70
39315;DHT22;28703;44.412;11.918;2023-07-13T07:07:35;29.10;96.50
39315;DHT22;28703;44.412;11.918;2023-07-13T07:10:02;29.20;96.50
39315;DHT22;28703;44.412;11.918;2023-07-13T07:12:28;29.30;96.40
39315;DHT22;28703;44.412;11.918;2023-07-13T07:14:54;29.30;96.40
39315;DHT22;28703;44.412;11.918;2023-07-13T07:17:20;29.40;96.40
39315;DHT22;28703;44.412;11.918;2023-07-13T07:19:46;29.40;96.30
39315;DHT22;28703;44.412;11.918;2023-07-13T07:22:12;29.50;96.30
39315;DHT22;28703;44.412;11.918;2023-07-13T07:24:38;29.60;96.20
39315;DHT22;28703;44.412;11.918;2023-07-13T07:27:04;29.50;96.00
39315;DHT22;28703;44.412;11.918;2023-07-13T07:29:30;29.60;96.00
39315;DHT22;28703;44.412;11.918;2023-07-13T07:31:55;29.60;95.80
39315;DHT22;28703;44.412;11.918;2023-07-13T07:34:21;29.60;95.80
39315;DHT22;28703;44.412;11.918;2023-07-13T07:36:47;29.70;95.70
39315;DHT22;28703;44.412;11.918;2023-07-13T07:39:13;29.70;95.70
39315;DHT22;28703;44.412;11.918;2023-07-13T07:41:39;29.70;95.70
39315;DHT22;28703;44.412;11.918;2023-07-13T07:44:04;29.70;95.70
39315;DHT22;28703;44.412;11.918;2023-07-13T07:46:33;29.70;95.80
39315;DHT22;28703;44.412;11.918;2023-07-13T07:48:58;29.80;95.80
39315;DHT22;28703;44.412;11.918;2023-07-13T07:51:24;29.80;95.70
39315;DHT22;28703;44.412;11.918;2023-07-13T07:53:50;29.80;95.80
39315;DHT22;28703;44.412;11.918;2023-07-13T07:56:16;29.90;95.80
39315;DHT22;28703;44.412;11.918;2023-07-13T07:58:42;29.90;95.70
39315;DHT22;28703;44.412;11.918;2023-07-13T08:01:23;30.00;95.50
39315;DHT22;28703;44.412;11.918;2023-07-13T08:03:49;30.00;95.20
39315;DHT22;28703;44.412;11.918;2023-07-13T08:06:15;30.00;95.30
39315;DHT22;28703;44.412;11.918;2023-07-13T08:08:41;30.00;95.40
39315;DHT22;28703;44.412;11.918;2023-07-13T08:11:08;30.00;95.40
39315;DHT22;28703;44.412;11.918;2023-07-13T08:13:34;30.10;95.40
39315;DHT22;28703;44.412;11.918;2023-07-13T08:16:00;30.10;95.40
39315;DHT22;28703;44.412;11.918;2023-07-13T08:18:26;30.10;95.30
39315;DHT22;28703;44.412;11.918;2023-07-13T08:20:54;30.10;95.30
39315;DHT22;28703;44.412;11.918;2023-07-13T08:23:22;30.20;95.60
39315;DHT22;28703;44.412;11.918;2023-07-13T08:25:55;30.20;95.20
39315;DHT22;28703;44.412;11.918;2023-07-13T08:28:21;30.30;95.20
39315;DHT22;28703;44.412;11.918;2023-07-13T08:30:47;30.30;95.20
39315;DHT22;28703;44.412;11.918;2023-07-13T08:33:18;30.30;95.10
39315;DHT22;28703;44.412;11.918;2023-07-13T08:35:48;30.40;95.10
39315;DHT22;28703;44.412;11.918;2023-07-13T08:38:15;30.40;95.20
39315;DHT22;28703;44.412;11.918;2023-07-13T08:40:42;30.40;95.10
39315;DHT22;28703;44.412;11.918;2023-07-13T08:43:16;30.50;94.80
39315;DHT22;28703;44.412;11.918;2023-07-13T08:45:50;30.60;94.70
39315;DHT22;28703;44.412;11.918;2023-07-13T08:48:32;30.60;94.70
39315;DHT22;28703;44.412;11.918;2023-07-13T08:53:38;30.70;94.40
39315;DHT22;28703;44.412;11.918;2023-07-13T08:56:16;30.70;94.40
39315;DHT22;28703;44.412;11.918;2023-07-13T08:58:44;30.70;94.50
39315;DHT22;28703;44.412;11.918;2023-07-13T09:04:19;30.70;94.40
39315;DHT22;28703;44.412;11.918;2023-07-13T09:12:12;30.60;94.40
39315;DHT22;28703;44.412;11.918;2023-07-13T09:14:49;30.60;94.40
39315;DHT22;28703;44.412;11.918;2023-07-13T09:19:56;30.50;94.50
39315;DHT22;28703;44.412;11.918;2023-07-13T09:22:24;30.40;94.50
39315;DHT22;28703;44.412;11.918;2023-07-13T09:25:51;30.40;94.50
39315;DHT22;28703;44.412;11.918;2023-07-13T09:27:53;30.40;94.40
39315;DHT22;28703;44.412;11.918;2023-07-13T09:30:33;30.20;94.50
39315;DHT22;28703;44.412;11.918;2023-07-13T09:32:59;30.20;94.60
39315;DHT22;28703;44.412;11.918;2023-07-13T09:35:27;30.10;94.70
39315;DHT22;28703;44.412;11.918;2023-07-13T09:38:19;30.10;94.80
39315;DHT22;28703;44.412;11.918;2023-07-13T09:43:36;30.00;94.90
39315;DHT22;28703;44.412;11.918;2023-07-13T09:46:02;29.90;95.10
39315;DHT22;28703;44.412;11.918;2023-07-13T09:48:35;29.80;95.20
39315;DHT22;28703;44.412;11.918;2023-07-13T09:51:15;29.70;95.30
39315;DHT22;28703;44.412;11.918;2023-07-13T09:53:43;29.70;95.60
39315;DHT22;28703;44.412;11.918;2023-07-13T09:56:28;29.60;95.40
39315;DHT22;28703;44.412;11.918;2023-07-13T09:58:56;29.60;95.40
39315;DHT22;28703;44.412;11.918;2023-07-13T10:01:37;29.60;95.60
39315;DHT22;28703;44.412;11.918;2023-07-13T10:04:13;29.50;95.70
39315;DHT22;28703;44.412;11.918;2023-07-13T10:06:40;29.50;95.90
39315;DHT22;28703;44.412;11.918;2023-07-13T10:09:08;29.40;96.00
39315;DHT22;28703;44.412;11.918;2023-07-13T10:11:36;29.40;96.20
39315;DHT22;28703;44.412;11.918;2023-07-13T10:14:16;29.40;96.50
39315;DHT22;28703;44.412;11.918;2023-07-13T10:16:45;29.30;96.90
39315;DHT22;28703;44.412;11.918;2023-07-13T10:19:21;29.20;97.00
39315;DHT22;28703;44.412;11.918;2023-07-13T10:24:27;29.10;98.20
39315;DHT22;28703;44.412;11.918;2023-07-13T10:27:20;29.00;98.60
39315;DHT22;28703;44.412;11.918;2023-07-13T10:29:57;28.90;99.10
39315;DHT22;28703;44.412;11.918;2023-07-13T10:32:24;28.90;99.60
39315;DHT22;28703;44.412;11.918;2023-07-13T10:34:51;28.80;99.90
39315;DHT22;28703;44.412;11.918;2023-07-13T10:37:57;28.70;99.90
39315;DHT22;28703;44.412;11.918;2023-07-13T10:43:05;28.60;99.90
39315;DHT22;28703;44.412;11.918;2023-07-13T10:45:46;28.50;99.90
39315;DHT22;28703;44.412;11.918;2023-07-13T10:48:16;28.50;99.90
39315;DHT22;28703;44.412;11.918;2023-07-13T10:50:44;28.40;99.00
39315;DHT22;28703;44.412;11.918;2023-07-13T10:53:19;28.20;97.90
39315;DHT22;28703;44.412;11.918;2023-07-13T10:58:20;27.90;96.90
39315;DHT22;28703;44.412;11.918;2023-07-13T11:01:14;27.80;97.10
39315;DHT22;28703;44.412;11.918;2023-07-13T11:06:13;27.70;97.20
39315;DHT22;28703;44.412;11.918;2023-07-13T11:08:55;27.70;97.20
39315;DHT22;28703;44.412;11.918;2023-07-13T11:11:34;27.80;96.40
39315;DHT22;28703;44.412;11.918;2023-07-13T11:14:03;27.70;96.00
39315;DHT22;28703;44.412;11.918;2023-07-13T11:16:43;27.70;96.20
39315;DHT22;28703;44.412;11.918;2023-07-13T11:22:43;27.70;95.90
39315;DHT22;28703;44.412;11.918;2023-07-13T11:30:59;27.60;94.40
39315;DHT22;28703;44.412;11.918;2023-07-13T11:36:18;27.70;94.90
39315;DHT22;28703;44.412;11.918;2023-07-13T11:39:00;27.70;94.80
39315;DHT22;28703;44.412;11.918;2023-07-13T11:41:43;27.70;94.90
39315;DHT22;28703;44.412;11.918;2023-07-13T11:44:18;27.70;95.00
39315;DHT22;28703;44.412;11.918;2023-07-13T11:46:56;27.60;95.40
39315;DHT22;28703;44.412;11.918;2023-07-13T11:49:24;27.60;95.30
39315;DHT22;28703;44.412;11.918;2023-07-13T11:51:51;27.60;95.10
39315;DHT22;28703;44.412;11.918;2023-07-13T11:57:20;27.60;94.50
39315;DHT22;28703;44.412;11.918;2023-07-13T11:59:51;27.70;94.60
39315;DHT22;28703;44.412;11.918;2023-07-13T12:06:32;27.90;94.50
39315;DHT22;28703;44.412;11.918;2023-07-13T12:09:13;28.10;94.20
39315;DHT22;28703;44.412;11.918;2023-07-13T12:11:41;28.30;94.40
39315;DHT22;28703;44.412;11.918;2023-07-13T12:14:18;28.40;94.40
39315;DHT22;28703;44.412;11.918;2023-07-13T12:16:47;28.60;94.20
39315;DHT22;28703;44.412;11.918;2023-07-13T12:19:26;28.70;94.40
39315;DHT22;28703;44.412;11.918;2023-07-13T12:21:56;28.90;94.30
39315;DHT22;28703;44.412;11.918;2023-07-13T12:24:22;29.10;94.40
39315;DHT22;28703;44.412;11.918;2023-07-13T12:30:00;29.40;94.40
39315;DHT22;28703;44.412;11.918;2023-07-13T12:32:27;29.60;94.40
39315;DHT22;28703;44.412;11.918;2023-07-13T12:35:16;29.80;94.60
39315;DHT22;28703;44.412;11.918;2023-07-13T12:37:46;30.00;94.60
39315;DHT22;28703;44.412;11.918;2023-07-13T12:40:20;30.20;94.50
39315;DHT22;28703;44.412;11.918;2023-07-13T12:42:49;30.40;94.10
39315;DHT22;28703;44.412;11.918;2023-07-13T12:45:22;30.50;93.90
39315;DHT22;28703;44.412;11.918;2023-07-13T12:47:55;30.70;93.60
39315;DHT22;28703;44.412;11.918;2023-07-13T12:50:23;30.90;93.40
39315;DHT22;28703;44.412;11.918;2023-07-13T12:53:01;31.00;93.10
39315;DHT22;28703;44.412;11.918;2023-07-13T12:55:29;31.20;92.70
39315;DHT22;28703;44.412;11.918;2023-07-13T12:57:59;31.30;92.60
39315;DHT22;28703;44.412;11.918;2023-07-13T13:00:36;31.40;92.40
39315;DHT22;28703;44.412;11.918;2023-07-13T13:05:38;31.70;92.00
39315;DHT22;28703;44.412;11.918;2023-07-13T13:08:04;31.80;92.20
39315;DHT22;28703;44.412;11.918;2023-07-13T13:10:30;31.80;91.90
39315;DHT22;28703;44.412;11.918;2023-07-13T13:12:56;31.90;91.80
39315;DHT22;28703;44.412;11.918;2023-07-13T13:15:22;32.00;92.10
39315;DHT22;28703;44.412;11.918;2023-07-13T13:17:49;32.10;91.70
39315;DHT22;28703;44.412;11.918;2023-07-13T13:20:17;32.20;91.70
39315;DHT22;28703;44.412;11.918;2023-07-13T13:22:43;32.30;91.50
39315;DHT22;28703;44.412;11.918;2023-07-13T13:25:18;32.30;91.60
39315;DHT22;28703;44.412;11.918;2023-07-13T13:27:45;32.40;91.50
39315;DHT22;28703;44.412;11.918;2023-07-13T13:30:13;32.50;91.60
39315;DHT22;28703;44.412;11.918;2023-07-13T13:32:40;32.60;91.70
39315;DHT22;28703;44.412;11.918;2023-07-13T13:35:14;32.70;91.40
39315;DHT22;28703;44.412;11.918;2023-07-13T13:37:40;32.80;91.30
39315;DHT22;28703;44.412;11.918;2023-07-13T13:40:18;32.80;91.40
39315;DHT22;28703;44.412;11.918;2023-07-13T13:42:45;32.90;91.20
39315;DHT22;28703;44.412;11.918;2023-07-13T13:45:11;33.00;91.40
39315;DHT22;28703;44.412;11.918;2023-07-13T13:47:43;33.10;91.50
39315;DHT22;28703;44.412;11.918;2023-07-13T13:50:18;33.30;91.80
39315;DHT22;28703;44.412;11.918;2023-07-13T13:52:45;33.50;91.40
39315;DHT22;28703;44.412;11.918;2023-07-13T13:55:12;33.70;91.50
39315;DHT22;28703;44.412;11.918;2023-07-13T13:57:39;33.80;91.30
39315;DHT22;28703;44.412;11.918;2023-07-13T14:00:05;34.00;91.00
39315;DHT22;28703;44.412;11.918;2023-07-13T14:02:31;34.10;90.40
39315;DHT22;28703;44.412;11.918;2023-07-13T14:05:05;34.10;90.50
39315;DHT22;28703;44.412;11.918;2023-07-13T14:07:33;34.20;90.20
39315;DHT22;28703;44.412;11.918;2023-07-13T14:10:00;34.30;90.50
39315;DHT22;28703;44.412;11.918;2023-07-13T14:12:27;34.40;90.50
39315;DHT22;28703;44.412;11.918;2023-07-13T14:14:57;34.60;90.60
39315;DHT22;28703;44.412;11.918;2023-07-13T14:17:25;34.70;90.70
39315;DHT22;28703;44.412;11.918;2023-07-13T14:19:53;34.80;90.70
39315;DHT22;28703;44.412;11.918;2023-07-13T14:22:26;34.90;90.20
39315;DHT22;28703;44.412;11.918;2023-07-13T14:24:55;34.90;89.90
39315;DHT22;28703;44.412;11.918;2023-07-13T14:27:24;35.00;90.10
39315;DHT22;28703;44.412;11.918;2023-07-13T14:29:50;35.10;90.20
39315;DHT22;28703;44.412;11.918;2023-07-13T14:32:16;35.30;90.20
39315;DHT22;28703;44.412;11.918;2023-07-13T14:34:42;35.40;90.20
39315;DHT22;28703;44.412;11.918;2023-07-13T14:37:15;35.50;90.10
39315;DHT22;28703;44.412;11.918;2023-07-13T14:39:43;35.70;89.70
39315;DHT22;28703;44.412;11.918;2023-07-13T14:42:10;35.80;89.60
39315;DHT22;28703;44.412;11.918;2023-07-13T14:44:38;35.90;89.70
39315;DHT22;28703;44.412;11.918;2023-07-13T14:47:05;36.00;89.50
39315;DHT22;28703;44.412;11.918;2023-07-13T14:49:40;36.00;89.00
39315;DHT22;28703;44.412;11.918;2023-07-13T14:52:15;36.10;89.20
39315;DHT22;28703;44.412;11.918;2023-07-13T14:54:42;36.20;89.30
39315;DHT22;28703;44.412;11.918;2023-07-13T14:57:17;36.30;89.20
39315;DHT22;28703;44.412;11.918;2023-07-13T14:59:44;36.40;88.80
39315;DHT22;28703;44.412;11.918;2023-07-13T15:02:23;36.40;88.90
39315;DHT22;28703;44.412;11.918;2023-07-13T15:04:51;36.40;88.40
39315;DHT22;28703;44.412;11.918;2023-07-13T15:07:17;36.20;88.70
39315;DHT22;28703;44.412;11.918;2023-07-13T15:09:44;36.10;89.00
39315;DHT22;28703;44.412;11.918;2023-07-13T15:12:10;36.00;89.40
39315;DHT22;28703;44.412;11.918;2023-07-13T15:14:36;35.80;89.40
39315;DHT22;28703;44.412;11.918;2023-07-13T15:17:02;35.70;89.40
39315;DHT22;28703;44.412;11.918;2023-07-13T15:19:29;35.40;89.30
39315;DHT22;28703;44.412;11.918;2023-07-13T15:21:55;35.30;89.60
39315;DHT22;28703;44.412;11.918;2023-07-13T15:24:40;35.20;90.10
39315;DHT22;28703;44.412;11.918;2023-07-13T15:27:12;35.00;90.20
39315;DHT22;28703;44.412;11.918;2023-07-13T15:29:38;34.90;90.20
39315;DHT22;28703;44.412;11.918;2023-07-13T15:32:13;34.80;90.30
39315;DHT22;28703;44.412;11.918;2023-07-13T15:34:40;34.70;90.40
39315;DHT22;28703;44.412;11.918;2023-07-13T15:37:16;34.50;90.40
39315;DHT22;28703;44.412;11.918;2023-07-13T15:39:42;34.50;90.60
39315;DHT22;28703;44.412;11.918;2023-07-13T15:42:18;34.30;90.70
39315;DHT22;28703;44.412;11.918;2023-07-13T15:44:45;34.40;90.80
39315;DHT22;28703;44.412;11.918;2023-07-13T15:47:14;34.30;90.90
39315;DHT22;28703;44.412;11.918;2023-07-13T15:49:41;34.40;90.80
39315;DHT22;28703;44.412;11.918;2023-07-13T15:52:20;34.40;90.90
39315;DHT22;28703;44.412;11.918;2023-07-13T15:54:48;34.30;90.80
39315;DHT22;28703;44.412;11.918;2023-07-13T15:57:14;34.30;90.90
39315;DHT22;28703;44.412;11.918;2023-07-13T15:59:41;34.40;91.20
39315;DHT22;28703;44.412;11.918;2023-07-13T16:02:19;34.40;91.10
39315;DHT22;28703;44.412;11.918;2023-07-13T16:04:46;34.60;91.00
39315;DHT22;28703;44.412;11.918;2023-07-13T16:07:14;34.80;91.30
39315;DHT22;28703;44.412;11.918;2023-07-13T16:09:44;35.10;91.00
39315;DHT22;28703;44.412;11.918;2023-07-13T16:12:12;35.40;90.60
39315;DHT22;28703;44.412;11.918;2023-07-13T16:14:39;35.80;90.30
39315;DHT22;28703;44.412;11.918;2023-07-13T16:17:10;36.10;90.00
39315;DHT22;28703;44.412;11.918;2023-07-13T16:19:36;36.40;89.20
39315;DHT22;28703;44.412;11.918;2023-07-13T16:22:03;36.70;88.50
39315;DHT22;28703;44.412;11.918;2023-07-13T16:24:31;36.90;87.90